sensor_id;sensor_type;location;lat;lon;timestamp;P1;durP1;ratioP1;P2;durP2;ratioP2
17145;SDS011;8688;54.444;18.444;2023-12-04T00:01:33;5.63;;;2.77;;
17145;SDS011;8688;54.444;18.444;2023-12-04T00:04:03;5.97;;;3.00;;
17145;SDS011;8688;54.444;18.444;2023-12-04T00:06:32;6.17;;;3.00;;
17145;SDS011;8688;54.444;18.444;2023-12-04T00:09:00;5.67;;;2.80;;
17145;SDS011;8688;54.444;18.444;2023-12-04T00:11:28;7.57;;;2.97;;
17145;SDS011;8688;54.444;18.444;2023-12-04T00:13:59;6.10;;;3.00;;
17145;SDS011;8688;54.444;18.444;2023-12-04T00:16:33;4.77;;;2.60;;
17145;SDS011;8688;54.444;18.444;2023-12-04T00:19:01;4.97;;;2.70;;
17145;SDS011;8688;54.444;18.444;2023-12-04T00:21:29;5.33;;;2.63;;
17145;SDS011;8688;54.444;18.444;2023-12-04T00:23:57;4.77;;;2.73;;
17145;SDS011;8688;54.444;18.444;2023-12-04T00:26:25;5.20;;;2.83;;
17145;SDS011;8688;54.444;18.444;2023-12-04T00:28:53;4.97;;;2.60;;
17145;SDS011;8688;54.444;18.444;2023-12-04T00:31:22;4.73;;;2.53;;
17145;SDS011;8688;54.444;18.444;2023-12-04T00:33:51;4.00;;;2.20;;
17145;SDS011;8688;54.444;18.444;2023-12-04T00:36:19;4.87;;;2.40;;
17145;SDS011;8688;54.444;18.444;2023-12-04T00:38:47;5.13;;;2.23;;
17145;SDS011;8688;54.444;18.444;2023-12-04T00:41:15;5.03;;;2.70;;
17145;SDS011;8688;54.444;18.444;2023-12-04T00:43:43;4.03;;;2.20;;
17145;SDS011;8688;54.444;18.444;2023-12-04T00:46:12;3.53;;;2.20;;
17145;SDS011;8688;54.444;18.444;2023-12-04T00:48:41;4.33;;;2.30;;
17145;SDS011;8688;54.444;18.444;2023-12-04T00:51:11;5.23;;;2.13;;
17145;SDS011;8688;54.444;18.444;2023-12-04T00:53:41;4.47;;;2.50;;
17145;SDS011;8688;54.444;18.444;2023-12-04T00:56:10;4.60;;;2.50;;
17145;SDS011;8688;54.444;18.444;2023-12-04T00:58:38;4.20;;;2.00;;
17145;SDS011;8688;54.444;18.444;2023-12-04T01:01:06;4.77;;;2.43;;
17145;SDS011;8688;54.444;18.444;2023-12-04T01:03:34;4.37;;;2.20;;
17145;SDS011;8688;54.444;18.444;2023-12-04T01:06:04;4.27;;;2.30;;
17145;SDS011;8688;54.444;18.444;2023-12-04T01:08:33;4.30;;;2.13;;
17145;SDS011;8688;54.444;18.444;2023-12-04T01:11:01;4.30;;;2.20;;
17145;SDS011;8688;54.444;18.444;2023-12-04T01:13:29;4.13;;;2.17;;
17145;SDS011;8688;54.444;18.444;2023-12-04T01:15:58;3.67;;;2.30;;
17145;SDS011;8688;54.444;18.444;2023-12-04T01:18:26;3.90;;;2.17;;
17145;SDS011;8688;54.444;18.444;2023-12-04T01:20:54;5.10;;;2.40;;
17145;SDS011;8688;54.444;18.444;2023-12-04T01:23:24;2.50;;;1.30;;
17145;SDS011;8688;54.444;18.444;2023-12-04T01:25:52;3.80;;;2.43;;
17145;SDS011;8688;54.444;18.444;2023-12-04T01:28:21;4.10;;;2.27;;
17145;SDS011;8688;54.444;18.444;2023-12-04T01:30:49;4.43;;;2.20;;
17145;SDS011;8688;54.444;18.444;2023-12-04T01:33:17;4.77;;;2.30;;
17145;SDS011;8688;54.444;18.444;2023-12-04T01:35:45;3.83;;;2.13;;
17145;SDS011;8688;54.444;18.444;2023-12-04T01:38:13;4.63;;;2.50;;
17145;SDS011;8688;54.444;18.444;2023-12-04T01:40:43;3.77;;;2.27;;
17145;SDS011;8688;54.444;18.444;2023-12-04T01:43:11;4.50;;;2.30;;
17145;SDS011;8688;54.444;18.444;2023-12-04T01:45:41;4.70;;;2.30;;
17145;SDS011;8688;54.444;18.444;2023-12-04T01:48:11;5.33;;;2.87;;
17145;SDS011;8688;54.444;18.444;2023-12-04T01:50:41;3.10;;;2.00;;
17145;SDS011;8688;54.444;18.444;2023-12-04T01:53:09;4.73;;;2.20;;
17145;SDS011;8688;54.444;18.444;2023-12-04T01:55:37;4.53;;;2.40;;
17145;SDS011;8688;54.444;18.444;2023-12-04T01:58:07;3.77;;;2.20;;
17145;SDS011;8688;54.444;18.444;2023-12-04T02:00:35;3.90;;;2.13;;
17145;SDS011;8688;54.444;18.444;2023-12-04T02:03:03;3.83;;;2.20;;
17145;SDS011;8688;54.444;18.444;2023-12-04T02:05:31;4.57;;;2.40;;
17145;SDS011;8688;54.444;18.444;2023-12-04T02:08:00;7.97;;;2.90;;
17145;SDS011;8688;54.444;18.444;2023-12-04T02:10:29;7.13;;;2.87;;
17145;SDS011;8688;54.444;18.444;2023-12-04T02:12:57;8.27;;;3.00;;
17145;SDS011;8688;54.444;18.444;2023-12-04T02:15:27;6.73;;;3.03;;
17145;SDS011;8688;54.444;18.444;2023-12-04T02:17:55;7.40;;;2.90;;
17145;SDS011;8688;54.444;18.444;2023-12-04T02:20:30;7.20;;;2.70;;
17145;SDS011;8688;54.444;18.444;2023-12-04T02:22:59;6.60;;;2.57;;
17145;SDS011;8688;54.444;18.444;2023-12-04T02:25:29;7.10;;;3.00;;
17145;SDS011;8688;54.444;18.444;2023-12-04T02:27:59;4.03;;;2.40;;
17145;SDS011;8688;54.444;18.444;2023-12-04T02:30:31;5.53;;;2.47;;
17145;SDS011;8688;54.444;18.444;2023-12-04T02:33:03;5.63;;;2.80;;
17145;SDS011;8688;54.444;18.444;2023-12-04T02:35:34;6.43;;;2.83;;
17145;SDS011;8688;54.444;18.444;2023-12-04T02:38:06;5.37;;;2.37;;
17145;SDS011;8688;54.444;18.444;2023-12-04T02:40:36;4.83;;;2.20;;
17145;SDS011;8688;54.444;18.444;2023-12-04T02:43:05;5.20;;;2.30;;
17145;SDS011;8688;54.444;18.444;2023-12-04T02:45:32;4.93;;;2.27;;
17145;SDS011;8688;54.444;18.444;2023-12-04T02:48:00;6.53;;;2.57;;
17145;SDS011;8688;54.444;18.444;2023-12-04T02:50:32;7.67;;;2.50;;
17145;SDS011;8688;54.444;18.444;2023-12-04T02:53:00;6.57;;;2.40;;
17145;SDS011;8688;54.444;18.444;2023-12-04T02:55:28;7.57;;;2.60;;
17145;SDS011;8688;54.444;18.444;2023-12-04T02:57:58;10.17;;;2.80;;
17145;SDS011;8688;54.444;18.444;2023-12-04T03:00:26;6.90;;;2.80;;
17145;SDS011;8688;54.444;18.444;2023-12-04T03:02:54;8.27;;;2.73;;
17145;SDS011;8688;54.444;18.444;2023-12-04T03:05:22;6.00;;;2.60;;
17145;SDS011;8688;54.444;18.444;2023-12-04T03:07:50;7.23;;;2.80;;
17145;SDS011;8688;54.444;18.444;2023-12-04T03:10:18;7.07;;;2.43;;
17145;SDS011;8688;54.444;18.444;2023-12-04T03:12:46;5.73;;;2.43;;
17145;SDS011;8688;54.444;18.444;2023-12-04T03:15:16;6.17;;;2.57;;
17145;SDS011;8688;54.444;18.444;2023-12-04T03:17:44;5.63;;;2.40;;
17145;SDS011;8688;54.444;18.444;2023-12-04T03:20:12;5.60;;;2.50;;
17145;SDS011;8688;54.444;18.444;2023-12-04T03:22:40;6.47;;;2.80;;
17145;SDS011;8688;54.444;18.444;2023-12-04T03:25:08;5.83;;;2.53;;
17145;SDS011;8688;54.444;18.444;2023-12-04T03:27:36;5.40;;;2.60;;
17145;SDS011;8688;54.444;18.444;2023-12-04T03:30:04;4.57;;;2.50;;
17145;SDS011;8688;54.444;18.444;2023-12-04T03:32:35;5.43;;;2.60;;
17145;SDS011;8688;54.444;18.444;2023-12-04T03:35:03;3.87;;;2.50;;
17145;SDS011;8688;54.444;18.444;2023-12-04T03:37:33;4.77;;;2.37;;
17145;SDS011;8688;54.444;18.444;2023-12-04T03:40:01;5.20;;;2.70;;
17145;SDS011;8688;54.444;18.444;2023-12-04T03:42:29;3.43;;;2.30;;
17145;SDS011;8688;54.444;18.444;2023-12-04T03:44:58;5.00;;;2.27;;
17145;SDS011;8688;54.444;18.444;2023-12-04T03:47:28;5.83;;;2.70;;
17145;SDS011;8688;54.444;18.444;2023-12-04T03:49:57;5.37;;;2.13;;
17145;SDS011;8688;54.444;18.444;2023-12-04T03:52:25;7.70;;;2.50;;
17145;SDS011;8688;54.444;18.444;2023-12-04T03:54:53;5.50;;;2.60;;
17145;SDS011;8688;54.444;18.444;2023-12-04T03:57:21;5.23;;;2.77;;
17145;SDS011;8688;54.444;18.444;2023-12-04T03:59:49;3.97;;;2.17;;
17145;SDS011;8688;54.444;18.444;2023-12-04T04:02:17;3.80;;;2.20;;
17145;SDS011;8688;54.444;18.444;2023-12-04T04:04:45;4.47;;;2.30;;
17145;SDS011;8688;54.444;18.444;2023-12-04T04:07:15;6.23;;;2.60;;
17145;SDS011;8688;54.444;18.444;2023-12-04T04:09:43;7.83;;;2.87;;
17145;SDS011;8688;54.444;18.444;2023-12-04T04:12:15;3.33;;;2.13;;
17145;SDS011;8688;54.444;18.444;2023-12-04T04:14:42;5.27;;;2.10;;
17145;SDS011;8688;54.444;18.444;2023-12-04T04:17:10;3.70;;;2.03;;
17145;SDS011;8688;54.444;18.444;2023-12-04T04:19:41;4.77;;;2.37;;
17145;SDS011;8688;54.444;18.444;2023-12-04T04:22:10;6.53;;;2.50;;
17145;SDS011;8688;54.444;18.444;2023-12-04T04:24:39;4.60;;;2.57;;
17145;SDS011;8688;54.444;18.444;2023-12-04T04:27:07;3.90;;;2.43;;
17145;SDS011;8688;54.444;18.444;2023-12-04T04:29:35;7.27;;;3.13;;
17145;SDS011;8688;54.444;18.444;2023-12-04T04:32:03;5.20;;;2.60;;
17145;SDS011;8688;54.444;18.444;2023-12-04T04:34:32;6.67;;;2.50;;
17145;SDS011;8688;54.444;18.444;2023-12-04T04:37:00;6.13;;;2.30;;
17145;SDS011;8688;54.444;18.444;2023-12-04T04:39:28;6.30;;;2.43;;
17145;SDS011;8688;54.444;18.444;2023-12-04T04:41:58;6.87;;;3.37;;
17145;SDS011;8688;54.444;18.444;2023-12-04T04:44:26;6.30;;;2.63;;
17145;SDS011;8688;54.444;18.444;2023-12-04T04:46:53;5.63;;;2.47;;
17145;SDS011;8688;54.444;18.444;2023-12-04T04:49:21;5.50;;;2.60;;
17145;SDS011;8688;54.444;18.444;2023-12-04T04:51:49;7.50;;;3.00;;
17145;SDS011;8688;54.444;18.444;2023-12-04T04:54:17;13.00;;;4.23;;
17145;SDS011;8688;54.444;18.444;2023-12-04T04:56:46;8.17;;;3.70;;
17145;SDS011;8688;54.444;18.444;2023-12-04T04:59:16;10.43;;;4.83;;
17145;SDS011;8688;54.444;18.444;2023-12-04T05:01:44;5.93;;;2.87;;
17145;SDS011;8688;54.444;18.444;2023-12-04T05:04:12;8.07;;;3.50;;
17145;SDS011;8688;54.444;18.444;2023-12-04T05:06:40;6.50;;;3.30;;
17145;SDS011;8688;54.444;18.444;2023-12-04T05:09:08;7.87;;;3.63;;
17145;SDS011;8688;54.444;18.444;2023-12-04T05:11:36;5.57;;;3.13;;
17145;SDS011;8688;54.444;18.444;2023-12-04T05:14:04;7.57;;;3.50;;
17145;SDS011;8688;54.444;18.444;2023-12-04T05:16:34;6.57;;;3.50;;
17145;SDS011;8688;54.444;18.444;2023-12-04T05:19:01;8.90;;;4.10;;
17145;SDS011;8688;54.444;18.444;2023-12-04T05:21:30;10.33;;;4.90;;
17145;SDS011;8688;54.444;18.444;2023-12-04T05:23:58;9.57;;;4.60;;
17145;SDS011;8688;54.444;18.444;2023-12-04T05:26:26;10.23;;;4.33;;
17145;SDS011;8688;54.444;18.444;2023-12-04T05:28:53;10.17;;;4.43;;
17145;SDS011;8688;54.444;18.444;2023-12-04T05:31:22;9.70;;;4.77;;
17145;SDS011;8688;54.444;18.444;2023-12-04T05:33:51;9.87;;;4.83;;
17145;SDS011;8688;54.444;18.444;2023-12-04T05:36:19;12.50;;;5.30;;
17145;SDS011;8688;54.444;18.444;2023-12-04T05:38:47;11.73;;;5.50;;
17145;SDS011;8688;54.444;18.444;2023-12-04T05:41:15;14.60;;;6.37;;
17145;SDS011;8688;54.444;18.444;2023-12-04T05:43:43;15.43;;;6.63;;
17145;SDS011;8688;54.444;18.444;2023-12-04T05:46:11;12.90;;;6.43;;
17145;SDS011;8688;54.444;18.444;2023-12-04T05:48:39;12.53;;;5.53;;
17145;SDS011;8688;54.444;18.444;2023-12-04T05:51:08;11.67;;;5.80;;
17145;SDS011;8688;54.444;18.444;2023-12-04T05:53:38;11.80;;;5.47;;
17145;SDS011;8688;54.444;18.444;2023-12-04T05:56:06;13.00;;;5.77;;
17145;SDS011;8688;54.444;18.444;2023-12-04T05:58:35;11.33;;;5.13;;
17145;SDS011;8688;54.444;18.444;2023-12-04T06:01:05;15.70;;;5.00;;
17145;SDS011;8688;54.444;18.444;2023-12-04T06:03:33;10.17;;;4.60;;
17145;SDS011;8688;54.444;18.444;2023-12-04T06:06:01;10.53;;;5.10;;
17145;SDS011;8688;54.444;18.444;2023-12-04T06:08:30;13.00;;;4.97;;
17145;SDS011;8688;54.444;18.444;2023-12-04T06:10:58;12.33;;;5.23;;
17145;SDS011;8688;54.444;18.444;2023-12-04T06:13:26;10.13;;;4.47;;
17145;SDS011;8688;54.444;18.444;2023-12-04T06:15:54;13.23;;;5.87;;
17145;SDS011;8688;54.444;18.444;2023-12-04T06:18:23;15.67;;;6.07;;
17145;SDS011;8688;54.444;18.444;2023-12-04T06:20:51;14.83;;;5.17;;
17145;SDS011;8688;54.444;18.444;2023-12-04T06:23:19;9.87;;;4.57;;
17145;SDS011;8688;54.444;18.444;2023-12-04T06:25:50;11.80;;;5.03;;
17145;SDS011;8688;54.444;18.444;2023-12-04T06:28:18;11.97;;;5.03;;
17145;SDS011;8688;54.444;18.444;2023-12-04T06:30:47;15.93;;;7.00;;
17145;SDS011;8688;54.444;18.444;2023-12-04T06:33:16;57.13;;;17.13;;
17145;SDS011;8688;54.444;18.444;2023-12-04T06:35:45;26.70;;;10.30;;
17145;SDS011;8688;54.444;18.444;2023-12-04T06:38:14;18.57;;;7.80;;
17145;SDS011;8688;54.444;18.444;2023-12-04T06:40:43;19.17;;;7.50;;
17145;SDS011;8688;54.444;18.444;2023-12-04T06:43:14;21.43;;;8.97;;
17145;SDS011;8688;54.444;18.444;2023-12-04T06:45:44;19.00;;;7.97;;
17145;SDS011;8688;54.444;18.444;2023-12-04T06:48:13;19.73;;;8.43;;
17145;SDS011;8688;54.444;18.444;2023-12-04T06:50:42;18.03;;;8.60;;
17145;SDS011;8688;54.444;18.444;2023-12-04T06:53:11;16.47;;;7.23;;
17145;SDS011;8688;54.444;18.444;2023-12-04T06:55:43;20.63;;;7.77;;
17145;SDS011;8688;54.444;18.444;2023-12-04T06:58:11;16.90;;;6.97;;
17145;SDS011;8688;54.444;18.444;2023-12-04T07:00:41;21.87;;;8.00;;
17145;SDS011;8688;54.444;18.444;2023-12-04T07:03:09;17.87;;;7.70;;
17145;SDS011;8688;54.444;18.444;2023-12-04T07:05:37;18.73;;;6.73;;
17145;SDS011;8688;54.444;18.444;2023-12-04T07:08:05;14.23;;;7.03;;
17145;SDS011;8688;54.444;18.444;2023-12-04T07:10:35;15.07;;;6.80;;
17145;SDS011;8688;54.444;18.444;2023-12-04T07:13:03;19.27;;;7.90;;
17145;SDS011;8688;54.444;18.444;2023-12-04T07:15:31;21.40;;;8.53;;
17145;SDS011;8688;54.444;18.444;2023-12-04T07:18:01;20.63;;;8.33;;
17145;SDS011;8688;54.444;18.444;2023-12-04T07:20:29;17.63;;;7.77;;
17145;SDS011;8688;54.444;18.444;2023-12-04T07:22:57;25.47;;;9.77;;
17145;SDS011;8688;54.444;18.444;2023-12-04T07:25:25;23.23;;;9.37;;
17145;SDS011;8688;54.444;18.444;2023-12-04T07:27:54;23.10;;;9.07;;
17145;SDS011;8688;54.444;18.444;2023-12-04T07:30:23;25.87;;;9.20;;
17145;SDS011;8688;54.444;18.444;2023-12-04T07:32:52;24.73;;;9.03;;
17145;SDS011;8688;54.444;18.444;2023-12-04T07:35:21;23.90;;;10.50;;
17145;SDS011;8688;54.444;18.444;2023-12-04T07:37:50;75.00;;;27.27;;
17145;SDS011;8688;54.444;18.444;2023-12-04T07:40:18;49.30;;;18.37;;
17145;SDS011;8688;54.444;18.444;2023-12-04T07:42:48;34.10;;;12.63;;
17145;SDS011;8688;54.444;18.444;2023-12-04T07:45:16;38.57;;;14.57;;
17145;SDS011;8688;54.444;18.444;2023-12-04T07:47:44;41.83;;;14.83;;
17145;SDS011;8688;54.444;18.444;2023-12-04T07:50:12;63.73;;;21.43;;
17145;SDS011;8688;54.444;18.444;2023-12-04T07:52:41;60.93;;;20.70;;
17145;SDS011;8688;54.444;18.444;2023-12-04T07:55:09;38.53;;;15.53;;
17145;SDS011;8688;54.444;18.444;2023-12-04T07:57:37;37.43;;;15.77;;
17145;SDS011;8688;54.444;18.444;2023-12-04T08:00:06;39.53;;;15.63;;
17145;SDS011;8688;54.444;18.444;2023-12-04T08:02:35;28.47;;;12.73;;
17145;SDS011;8688;54.444;18.444;2023-12-04T08:05:03;26.17;;;12.67;;
17145;SDS011;8688;54.444;18.444;2023-12-04T08:07:31;25.27;;;11.47;;
17145;SDS011;8688;54.444;18.444;2023-12-04T08:10:01;27.90;;;12.87;;
17145;SDS011;8688;54.444;18.444;2023-12-04T08:12:29;30.10;;;14.13;;
17145;SDS011;8688;54.444;18.444;2023-12-04T08:14:57;32.93;;;15.43;;
17145;SDS011;8688;54.444;18.444;2023-12-04T08:17:25;44.00;;;17.33;;
17145;SDS011;8688;54.444;18.444;2023-12-04T08:19:53;38.10;;;17.17;;
17145;SDS011;8688;54.444;18.444;2023-12-04T08:22:21;35.07;;;15.00;;
17145;SDS011;8688;54.444;18.444;2023-12-04T08:24:49;33.23;;;13.50;;
17145;SDS011;8688;54.444;18.444;2023-12-04T08:27:18;31.53;;;13.47;;
17145;SDS011;8688;54.444;18.444;2023-12-04T08:29:46;32.73;;;13.53;;
17145;SDS011;8688;54.444;18.444;2023-12-04T08:32:14;35.20;;;14.67;;
17145;SDS011;8688;54.444;18.444;2023-12-04T08:34:42;39.70;;;14.43;;
17145;SDS011;8688;54.444;18.444;2023-12-04T08:37:10;47.73;;;17.60;;
17145;SDS011;8688;54.444;18.444;2023-12-04T08:39:37;52.77;;;19.90;;
17145;SDS011;8688;54.444;18.444;2023-12-04T08:42:05;67.63;;;21.90;;
17145;SDS011;8688;54.444;18.444;2023-12-04T08:44:35;56.03;;;20.40;;
17145;SDS011;8688;54.444;18.444;2023-12-04T08:47:03;42.93;;;16.63;;
17145;SDS011;8688;54.444;18.444;2023-12-04T08:49:31;34.73;;;14.77;;
17145;SDS011;8688;54.444;18.444;2023-12-04T08:51:59;34.30;;;15.17;;
17145;SDS011;8688;54.444;18.444;2023-12-04T08:54:27;37.10;;;14.30;;
17145;SDS011;8688;54.444;18.444;2023-12-04T08:56:55;44.03;;;16.87;;
17145;SDS011;8688;54.444;18.444;2023-12-04T08:59:26;31.40;;;15.10;;
17145;SDS011;8688;54.444;18.444;2023-12-04T09:01:55;40.50;;;15.63;;
17145;SDS011;8688;54.444;18.444;2023-12-04T09:04:23;32.43;;;14.13;;
17145;SDS011;8688;54.444;18.444;2023-12-04T09:06:51;31.27;;;13.93;;
17145;SDS011;8688;54.444;18.444;2023-12-04T09:09:19;29.27;;;13.90;;
17145;SDS011;8688;54.444;18.444;2023-12-04T09:11:46;30.10;;;13.33;;
17145;SDS011;8688;54.444;18.444;2023-12-04T09:14:14;25.73;;;11.20;;
17145;SDS011;8688;54.444;18.444;2023-12-04T09:16:43;32.30;;;14.03;;
17145;SDS011;8688;54.444;18.444;2023-12-04T09:19:12;25.77;;;11.57;;
17145;SDS011;8688;54.444;18.444;2023-12-04T09:21:40;19.10;;;9.93;;
17145;SDS011;8688;54.444;18.444;2023-12-04T09:24:09;41.33;;;13.50;;
17145;SDS011;8688;54.444;18.444;2023-12-04T09:26:37;34.23;;;13.30;;
17145;SDS011;8688;54.444;18.444;2023-12-04T09:29:05;25.10;;;11.60;;
17145;SDS011;8688;54.444;18.444;2023-12-04T09:31:33;30.90;;;14.10;;
17145;SDS011;8688;54.444;18.444;2023-12-04T09:34:03;24.77;;;10.73;;
17145;SDS011;8688;54.444;18.444;2023-12-04T09:36:32;43.70;;;16.57;;
17145;SDS011;8688;54.444;18.444;2023-12-04T09:39:00;27.37;;;11.87;;
17145;SDS011;8688;54.444;18.444;2023-12-04T09:41:32;40.03;;;17.40;;
17145;SDS011;8688;54.444;18.444;2023-12-04T09:44:00;32.10;;;13.70;;
17145;SDS011;8688;54.444;18.444;2023-12-04T09:46:29;22.23;;;9.90;;
17145;SDS011;8688;54.444;18.444;2023-12-04T09:48:58;42.47;;;16.77;;
17145;SDS011;8688;54.444;18.444;2023-12-04T09:51:27;24.97;;;9.00;;
17145;SDS011;8688;54.444;18.444;2023-12-04T09:53:57;19.63;;;9.20;;
17145;SDS011;8688;54.444;18.444;2023-12-04T09:56:29;18.67;;;10.10;;
17145;SDS011;8688;54.444;18.444;2023-12-04T09:58:59;19.30;;;8.57;;
17145;SDS011;8688;54.444;18.444;2023-12-04T10:01:28;16.43;;;8.73;;
17145;SDS011;8688;54.444;18.444;2023-12-04T10:03:56;20.43;;;8.97;;
17145;SDS011;8688;54.444;18.444;2023-12-04T10:06:26;31.73;;;14.47;;
17145;SDS011;8688;54.444;18.444;2023-12-04T10:08:57;19.03;;;8.67;;
17145;SDS011;8688;54.444;18.444;2023-12-04T10:11:25;60.23;;;22.53;;
17145;SDS011;8688;54.444;18.444;2023-12-04T10:13:54;61.07;;;25.53;;
17145;SDS011;8688;54.444;18.444;2023-12-04T10:16:32;45.80;;;17.43;;
17145;SDS011;8688;54.444;18.444;2023-12-04T10:19:13;40.33;;;16.97;;
17145;SDS011;8688;54.444;18.444;2023-12-04T10:21:44;15.97;;;7.77;;
17145;SDS011;8688;54.444;18.444;2023-12-04T10:24:14;41.77;;;19.40;;
17145;SDS011;8688;54.444;18.444;2023-12-04T10:26:56;74.83;;;26.43;;
17145;SDS011;8688;54.444;18.444;2023-12-04T10:29:26;29.90;;;12.70;;
17145;SDS011;8688;54.444;18.444;2023-12-04T10:31:58;48.67;;;20.17;;
17145;SDS011;8688;54.444;18.444;2023-12-04T10:34:26;31.80;;;13.40;;
17145;SDS011;8688;54.444;18.444;2023-12-04T10:36:54;38.27;;;15.33;;
17145;SDS011;8688;54.444;18.444;2023-12-04T10:39:25;16.60;;;8.37;;
17145;SDS011;8688;54.444;18.444;2023-12-04T10:41:58;40.87;;;16.03;;
17145;SDS011;8688;54.444;18.444;2023-12-04T10:44:32;19.47;;;9.13;;
17145;SDS011;8688;54.444;18.444;2023-12-04T10:47:03;16.80;;;8.23;;
17145;SDS011;8688;54.444;18.444;2023-12-04T10:49:32;17.73;;;8.77;;
17145;SDS011;8688;54.444;18.444;2023-12-04T10:52:01;25.10;;;11.47;;
17145;SDS011;8688;54.444;18.444;2023-12-04T10:54:32;24.53;;;11.17;;
17145;SDS011;8688;54.444;18.444;2023-12-04T10:57:01;15.23;;;7.43;;
17145;SDS011;8688;54.444;18.444;2023-12-04T10:59:31;27.33;;;11.30;;
17145;SDS011;8688;54.444;18.444;2023-12-04T11:02:04;14.57;;;7.47;;
17145;SDS011;8688;54.444;18.444;2023-12-04T11:04:35;23.10;;;10.50;;
17145;SDS011;8688;54.444;18.444;2023-12-04T11:07:04;36.17;;;15.77;;
17145;SDS011;8688;54.444;18.444;2023-12-04T11:09:39;72.23;;;21.10;;
17145;SDS011;8688;54.444;18.444;2023-12-04T11:12:10;18.00;;;8.20;;
17145;SDS011;8688;54.444;18.444;2023-12-04T11:14:42;93.93;;;28.60;;
17145;SDS011;8688;54.444;18.444;2023-12-04T11:17:13;79.23;;;27.43;;
17145;SDS011;8688;54.444;18.444;2023-12-04T11:19:48;29.70;;;12.20;;
17145;SDS011;8688;54.444;18.444;2023-12-04T11:22:20;14.80;;;7.87;;
17145;SDS011;8688;54.444;18.444;2023-12-04T11:24:51;13.10;;;6.73;;
17145;SDS011;8688;54.444;18.444;2023-12-04T11:27:19;16.13;;;7.37;;
17145;SDS011;8688;54.444;18.444;2023-12-04T11:29:48;15.50;;;7.83;;
17145;SDS011;8688;54.444;18.444;2023-12-04T11:32:17;21.60;;;10.93;;
17145;SDS011;8688;54.444;18.444;2023-12-04T11:34:49;16.90;;;8.47;;
17145;SDS011;8688;54.444;18.444;2023-12-04T11:37:19;19.37;;;8.90;;
17145;SDS011;8688;54.444;18.444;2023-12-04T11:39:51;19.93;;;9.43;;
17145;SDS011;8688;54.444;18.444;2023-12-04T11:42:22;20.67;;;10.33;;
17145;SDS011;8688;54.444;18.444;2023-12-04T11:44:55;30.13;;;13.23;;
17145;SDS011;8688;54.444;18.444;2023-12-04T11:47:25;57.90;;;23.70;;
17145;SDS011;8688;54.444;18.444;2023-12-04T11:49:57;28.90;;;14.30;;
17145;SDS011;8688;54.444;18.444;2023-12-04T11:52:31;56.23;;;23.37;;
17145;SDS011;8688;54.444;18.444;2023-12-04T11:55:03;44.60;;;19.37;;
17145;SDS011;8688;54.444;18.444;2023-12-04T11:57:34;46.03;;;19.80;;
17145;SDS011;8688;54.444;18.444;2023-12-04T12:00:11;75.13;;;27.80;;
17145;SDS011;8688;54.444;18.444;2023-12-04T12:02:47;57.20;;;23.60;;
17145;SDS011;8688;54.444;18.444;2023-12-04T12:05:28;47.53;;;18.10;;
17145;SDS011;8688;54.444;18.444;2023-12-04T12:07:59;33.13;;;14.77;;
17145;SDS011;8688;54.444;18.444;2023-12-04T12:10:30;24.90;;;10.73;;
17145;SDS011;8688;54.444;18.444;2023-12-04T12:12:59;32.70;;;13.67;;
17145;SDS011;8688;54.444;18.444;2023-12-04T12:15:26;22.43;;;10.80;;
17145;SDS011;8688;54.444;18.444;2023-12-04T12:17:54;29.90;;;13.33;;
17145;SDS011;8688;54.444;18.444;2023-12-04T12:20:22;79.80;;;33.73;;
17145;SDS011;8688;54.444;18.444;2023-12-04T12:22:50;30.30;;;15.10;;
17145;SDS011;8688;54.444;18.444;2023-12-04T12:25:18;27.53;;;14.10;;
17145;SDS011;8688;54.444;18.444;2023-12-04T12:27:50;38.93;;;17.43;;
17145;SDS011;8688;54.444;18.444;2023-12-04T12:30:18;27.30;;;12.83;;
17145;SDS011;8688;54.444;18.444;2023-12-04T12:32:46;26.33;;;12.03;;
17145;SDS011;8688;54.444;18.444;2023-12-04T12:35:13;22.43;;;10.07;;
17145;SDS011;8688;54.444;18.444;2023-12-04T12:37:41;19.07;;;8.67;;
17145;SDS011;8688;54.444;18.444;2023-12-04T12:40:09;28.90;;;10.53;;
17145;SDS011;8688;54.444;18.444;2023-12-04T12:42:40;23.90;;;9.93;;
17145;SDS011;8688;54.444;18.444;2023-12-04T12:45:11;16.87;;;8.53;;
17145;SDS011;8688;54.444;18.444;2023-12-04T12:47:40;48.20;;;17.00;;
17145;SDS011;8688;54.444;18.444;2023-12-04T12:50:09;60.30;;;21.13;;
17145;SDS011;8688;54.444;18.444;2023-12-04T12:52:39;53.00;;;22.17;;
17145;SDS011;8688;54.444;18.444;2023-12-04T12:55:07;133.13;;;40.17;;
17145;SDS011;8688;54.444;18.444;2023-12-04T12:57:36;66.60;;;24.93;;
17145;SDS011;8688;54.444;18.444;2023-12-04T13:00:05;24.17;;;11.53;;
17145;SDS011;8688;54.444;18.444;2023-12-04T13:02:36;30.80;;;12.67;;
17145;SDS011;8688;54.444;18.444;2023-12-04T13:05:04;26.00;;;10.80;;
17145;SDS011;8688;54.444;18.444;2023-12-04T13:07:33;216.83;;;58.53;;
17145;SDS011;8688;54.444;18.444;2023-12-04T13:10:01;564.10;;;163.57;;
17145;SDS011;8688;54.444;18.444;2023-12-04T13:12:30;171.30;;;51.47;;
17145;SDS011;8688;54.444;18.444;2023-12-04T13:14:58;65.23;;;24.57;;
17145;SDS011;8688;54.444;18.444;2023-12-04T13:17:27;30.53;;;12.93;;
17145;SDS011;8688;54.444;18.444;2023-12-04T13:19:56;24.10;;;10.73;;
17145;SDS011;8688;54.444;18.444;2023-12-04T13:22:25;23.47;;;10.17;;
17145;SDS011;8688;54.444;18.444;2023-12-04T13:24:54;25.80;;;10.03;;
17145;SDS011;8688;54.444;18.444;2023-12-04T13:27:24;20.43;;;10.17;;
17145;SDS011;8688;54.444;18.444;2023-12-04T13:29:53;22.20;;;10.53;;
17145;SDS011;8688;54.444;18.444;2023-12-04T13:32:21;21.80;;;10.07;;
17145;SDS011;8688;54.444;18.444;2023-12-04T13:34:49;21.30;;;10.40;;
17145;SDS011;8688;54.444;18.444;2023-12-04T13:37:18;21.50;;;10.97;;
17145;SDS011;8688;54.444;18.444;2023-12-04T13:39:48;29.63;;;10.57;;
17145;SDS011;8688;54.444;18.444;2023-12-04T13:42:22;19.67;;;10.30;;
17145;SDS011;8688;54.444;18.444;2023-12-04T13:45:07;18.00;;;8.93;;
17145;SDS011;8688;54.444;18.444;2023-12-04T13:47:37;20.13;;;11.13;;
17145;SDS011;8688;54.444;18.444;2023-12-04T13:50:05;23.30;;;10.87;;
17145;SDS011;8688;54.444;18.444;2023-12-04T13:52:36;21.90;;;10.30;;
17145;SDS011;8688;54.444;18.444;2023-12-04T13:55:05;23.97;;;10.00;;
17145;SDS011;8688;54.444;18.444;2023-12-04T13:57:40;25.53;;;10.50;;
17145;SDS011;8688;54.444;18.444;2023-12-04T14:00:22;22.90;;;11.50;;
17145;SDS011;8688;54.444;18.444;2023-12-04T14:02:50;25.93;;;11.43;;
17145;SDS011;8688;54.444;18.444;2023-12-04T14:05:22;28.80;;;11.87;;
17145;SDS011;8688;54.444;18.444;2023-12-04T14:07:51;26.63;;;12.07;;
17145;SDS011;8688;54.444;18.444;2023-12-04T14:10:19;34.40;;;16.87;;
17145;SDS011;8688;54.444;18.444;2023-12-04T14:12:47;33.97;;;15.70;;
17145;SDS011;8688;54.444;18.444;2023-12-04T14:15:15;35.37;;;18.00;;
17145;SDS011;8688;54.444;18.444;2023-12-04T14:17:42;29.10;;;14.87;;
17145;SDS011;8688;54.444;18.444;2023-12-04T14:20:11;29.27;;;13.97;;
17145;SDS011;8688;54.444;18.444;2023-12-04T14:22:42;47.70;;;17.40;;
17145;SDS011;8688;54.444;18.444;2023-12-04T14:25:13;47.83;;;16.57;;
17145;SDS011;8688;54.444;18.444;2023-12-04T14:27:41;29.30;;;13.40;;
17145;SDS011;8688;54.444;18.444;2023-12-04T14:30:10;39.20;;;15.83;;
17145;SDS011;8688;54.444;18.444;2023-12-04T14:32:38;68.63;;;21.83;;
17145;SDS011;8688;54.444;18.444;2023-12-04T14:35:06;63.30;;;22.57;;
17145;SDS011;8688;54.444;18.444;2023-12-04T14:37:35;64.90;;;23.80;;
17145;SDS011;8688;54.444;18.444;2023-12-04T14:40:02;50.17;;;18.93;;
17145;SDS011;8688;54.444;18.444;2023-12-04T14:42:32;37.83;;;14.73;;
17145;SDS011;8688;54.444;18.444;2023-12-04T14:45:01;30.60;;;12.70;;